A- A+ FrançaisEnglishEspañol中国

Services sur Internet Soldes sur Internet Des idées de cadeaux Météo Météo aéro

La météo à : Autours de vous Tarbes-Lourdes-PyrénéesPontoise-Cormeilles-En-VexinChateauroux-Deols Paris-Orly

manche à air

La météo aéronautique pour les pilotes, la préparation du vol avec les METAR (METeorological Aerodrome Report, message d'observation des conditions météorologiques pour l'aviation) et Les TAF (Terminal Aerodrome Forecast : message de prévision à court terme des conditions météorologiques pour l'aviation). Et les autres ressources comme les VAC (Visual Approch Chart) et les NOTAM (Notice To Airman) pour préprer les vols.

Aéroport Tofino (Canada) / OACI CYAZ/ IATA YAZ

L'altitude de l'aéroport Tofino est de 24 m = 79 ft. Il est situé à proximité de Tofino (Canada). La météo générale à 5 jours est disponible pour Tofino situé à 12.3 km.

METAR de l'aéroport Tofino - CYAZ

CYAZ 111700Z 00000KT 15SM -SHRA SCT058 BKN089 OVC100 09/08 A3023 RMK CU3AC4AC1 SLP240

Décodage du METAR de l'aéroport Tofino (CA)

METAR émis par CYAZ le lundi 11 novembre 2019 à 17:00 heure TU. Attention ce METAR est obsolète car il a été émis il y a 9 heure et 16 minutes.

La visibilité est de 24.1 km = 15 sm.

La température est de 9°C = 48 °F et le point rosée est de 8°C = 46 °F . Ce qui correspond à 93% d'humidité relative.

Le QNH est de 1024 hPa = 30.24 inHg

Vent de 0 kt = 0 km/h, orienté à 0°.

Nuages : Nuages épars à 5800 ft = 1770 mètres. Couverture nuageuse fragmentée à 8900 ft = 2710 mètres. Couverture nuageuse soudée à 10000 ft = 3050 mètres.

-SHRA

RMK CU3AC4AC1 SLP240

TAF de l'aéroport Tofino - CYAZ

CYAZ 111638Z 1117/1201 VRB03KT P6SM BKN060 OVC080 TEMPO 1117/1201 P6SM -RA BECMG 1118/1120 12007KT RMK NXT FCST BY 111800Z

CYAZ 111638Z 1117/1201 VRB03KT P6SM couverture nuageuse fragmentée à 060 couverture nuageuse soudée à 080 temporairement 1117/1201 P6SM faible RA devenant 1118/1120 12007KT remarques NXT trombe ST BY 111800Z

Aéroport à proximité de Tofino

Météo générale à 5 jours à Tofino (12.3 km)Aéroport Comox (95 km)Aéroport Campbell River (103 km)Aéroport Texada Gillies Bay (114 km)Aéroport Powell River (125 km)Aéroport Nanaimo (139 km)Aéroport Quillayute State (155 km)

Vue aérienne de l'aéroport Tofino

NOTAM de l'aéroport Tofino

Les NOTAM sont fournis sans aucune garantie de leur actualité. Le pilote est le seul responsable de la vérification de sa validité avant de l'utiliser opérationnellement pour préparer un vol ou l'utiliser lors de sa navigation.

Pas de NOTAM

Sources des données